Time;durP1;ratioP1;P1;durP2;ratioP2;P2;SDS_P1;SDS_P2;PMS_P1;PMS_P2;Temp;Humidity;BMP_temperature;BMP_pressure;BME280_temperature;BME280_humidity;BME280_pressure;Samples;Min_cycle;Max_cycle;Signal;HPM_P1;HPM_P2
2023/06/12 00:00:11;;;;;;;9.43;6.90;;;;;;;18.33;45.31;100992.78;816054;24;1231;-79
2023/06/12 00:00:33;;;;;;;8.65;6.70;;;;;;;18.35;45.45;100988.41;823195;24;1427;-79
2023/06/12 00:00:54;;;;;;;9.20;6.50;;;;;;;18.38;45.55;100994.56;831887;23;1183;-79
2023/06/12 00:01:17;;;;;;;8.95;6.80;;;;;;;18.35;45.52;100996.31;827406;23;1097;-79
2023/06/12 00:01:39;;;;;;;10.10;7.03;;;;;;;18.34;45.61;100991.91;839100;23;961;-79
2023/06/12 00:02:00;;;;;;;9.63;7.10;;;;;;;18.35;45.70;100993.69;835785;23;1186;-79
2023/06/12 00:02:21;;;;;;;9.30;7.10;;;;;;;18.40;45.73;101000.72;835614;23;1159;-79
2023/06/12 00:02:44;;;;;;;12.40;7.20;;;;;;;18.38;45.52;100991.91;837398;23;818;-79
2023/06/12 00:03:06;;;;;;;11.77;6.82;;;;;;;18.38;45.68;100995.41;843608;23;1110;-79
2023/06/12 00:03:27;;;;;;;10.57;6.95;;;;;;;18.36;45.65;100998.09;843768;23;1235;-80
2023/06/12 00:03:47;;;;;;;9.48;6.70;;;;;;;18.39;45.49;100996.31;845502;23;708;-79
2023/06/12 00:04:08;;;;;;;10.90;7.00;;;;;;;18.33;45.56;100987.50;841099;23;1073;-79
2023/06/12 00:04:29;;;;;;;10.55;6.95;;;;;;;18.37;45.53;100993.66;839845;23;1128;-79
2023/06/12 00:04:54;;;;;;;9.90;7.00;;;;;;;18.37;45.56;100998.94;840010;23;1266;-79
2023/06/12 00:05:19;;;;;;;8.65;6.90;;;;;;;18.35;45.57;100992.78;843536;23;1914;-79
2023/06/12 00:05:44;;;;;;;8.70;6.90;;;;;;;18.38;45.50;100998.06;845498;23;802;-79
2023/06/12 00:06:05;;;;;;;8.48;6.60;;;;;;;18.39;45.50;100998.94;843859;23;1266;-80
2023/06/12 00:06:28;;;;;;;7.78;6.30;;;;;;;18.31;45.45;100988.41;839377;23;1186;-79
2023/06/12 00:06:50;;;;;;;7.60;6.20;;;;;;;18.28;45.49;100984.00;839426;23;1353;-80
2023/06/12 00:07:12;;;;;;;9.35;6.55;;;;;;;18.35;45.57;100996.31;839796;23;1200;-79
2023/06/12 00:07:33;;;;;;;10.40;6.78;;;;;;;18.34;45.61;100999.81;839969;23;1281;-79
2023/06/12 00:07:56;;;;;;;10.82;6.72;;;;;;;18.29;45.61;100983.13;840037;23;1314;-80
2023/06/12 00:08:21;;;;;;;10.73;6.60;;;;;;;18.35;45.69;101001.63;841015;23;1050;-79
2023/06/12 00:08:42;;;;;;;10.37;6.77;;;;;;;18.31;45.62;100993.69;844036;23;1291;-79
2023/06/12 00:09:05;;;;;;;10.60;6.68;;;;;;;18.30;45.61;100998.06;839518;23;1355;-79
2023/06/12 00:09:26;;;;;;;11.02;6.80;;;;;;;18.28;45.43;100986.66;834841;23;1256;-80
2023/06/12 00:09:47;;;;;;;12.00;6.70;;;;;;;18.28;45.53;100997.22;837470;23;877;-79
2023/06/12 00:10:09;;;;;;;11.10;6.63;;;;;;;18.26;45.61;100990.16;837135;23;1213;-79
2023/06/12 00:10:29;;;;;;;10.50;6.60;;;;;;;18.22;45.68;100984.00;841230;23;895;-79
2023/06/12 00:10:50;;;;;;;10.80;6.80;;;;;;;18.25;45.62;100994.53;841391;23;886;-79
2023/06/12 00:11:12;;;;;;;10.80;7.10;;;;;;;18.19;45.75;100984.88;837986;23;1083;-79
2023/06/12 00:11:33;;;;;;;11.13;7.20;;;;;;;18.25;45.76;101001.63;835960;23;1276;-79
2023/06/12 00:11:54;;;;;;;9.65;7.10;;;;;;;18.19;45.82;100994.56;836104;23;1208;-79
2023/06/12 00:12:15;;;;;;;9.75;7.25;;;;;;;18.15;46.07;100976.97;835342;23;1356;-79
2023/06/12 00:12:36;;;;;;;7.90;6.80;;;;;;;18.15;46.04;100980.50;835928;23;1362;-79
2023/06/12 00:12:57;;;;;;;8.07;6.65;;;;;;;18.12;46.11;100976.94;847146;23;1139;-79
2023/06/12 00:13:17;;;;;;;8.67;6.60;;;;;;;18.24;46.02;100995.44;851824;23;1269;-79
2023/06/12 00:13:43;;;;;;;10.23;6.85;;;;;;;18.13;46.11;100973.41;839997;23;1351;-79
2023/06/12 00:14:03;;;;;;;10.07;6.75;;;;;;;18.13;46.02;100983.97;839781;23;1137;-79
2023/06/12 00:14:24;;;;;;;9.90;6.88;;;;;;;18.16;46.15;100995.44;841321;23;1005;-79
2023/06/12 00:14:45;;;;;;;8.90;6.97;;;;;;;18.09;46.10;100986.59;839980;23;1444;-80
2023/06/12 00:15:07;;;;;;;8.10;7.10;;;;;;;18.03;46.29;100977.81;843613;23;1245;-79
2023/06/12 00:15:27;;;;;;;7.43;6.57;;;;;;;18.02;46.56;100992.75;838865;23;1092;-80
2023/06/12 00:15:49;;;;;;;7.87;6.70;;;;;;;18.00;46.35;100977.81;843060;23;1326;-80
2023/06/12 00:16:10;;;;;;;9.50;6.70;;;;;;;17.97;46.46;100989.25;843295;23;1218;-81
2023/06/12 00:16:31;;;;;;;10.20;7.18;;;;;;;17.96;46.63;100992.78;843895;23;1197;-80
2023/06/12 00:16:51;;;;;;;9.70;6.90;;;;;;;17.93;46.64;100982.19;842563;23;1192;-80
2023/06/12 00:17:12;;;;;;;8.50;6.90;;;;;;;17.96;46.81;100995.41;844959;23;1107;-79
2023/06/12 00:17:32;;;;;;;9.90;7.00;;;;;;;17.92;46.92;100991.00;843852;23;1178;-79
2023/06/12 00:17:53;;;;;;;10.37;7.00;;;;;;;17.91;46.84;100994.50;835936;23;1295;-79
2023/06/12 00:18:15;;;;;;;10.90;7.22;;;;;;;17.86;46.67;100980.41;835493;23;1173;-79
2023/06/12 00:18:40;;;;;;;9.32;6.93;;;;;;;17.83;46.89;100977.78;841353;23;931;-79
2023/06/12 00:19:01;;;;;;;8.38;6.70;;;;;;;17.84;47.10;100987.47;841074;23;1021;-79
2023/06/12 00:19:22;;;;;;;8.07;6.45;;;;;;;17.85;47.08;100992.75;845106;23;1212;-80
2023/06/12 00:19:42;;;;;;;8.55;6.97;;;;;;;17.83;47.63;100985.72;849437;23;747;-79
2023/06/12 00:20:05;;;;;;;9.60;7.30;;;;;;;17.87;47.59;100992.75;849161;23;1069;-79
2023/06/12 00:20:27;;;;;;;10.27;7.15;;;;;;;17.85;47.58;100987.47;835853;23;1329;-79
2023/06/12 00:20:48;;;;;;;8.93;6.45;;;;;;;17.87;47.50;100987.47;839951;23;1256;-79
2023/06/12 00:21:10;;;;;;;9.80;6.40;;;;;;;17.89;47.59;100991.00;839605;23;1279;-80
2023/06/12 00:21:31;;;;;;;9.98;6.53;;;;;;;17.84;47.67;100993.63;843702;23;1244;-78
2023/06/12 00:21:53;;;;;;;10.48;6.90;;;;;;;17.81;47.49;100981.31;840000;23;1168;-80
2023/06/12 00:22:14;;;;;;;10.80;6.97;;;;;;;17.85;47.76;100995.41;837052;23;1116;-80
2023/06/12 00:22:39;;;;;;;9.32;6.80;;;;;;;17.84;47.87;100984.81;837315;23;765;-80
2023/06/12 00:23:01;;;;;;;9.00;6.50;;;;;;;17.82;48.05;100990.09;841272;23;1010;-79
2023/06/12 00:23:21;;;;;;;8.38;6.82;;;;;;;17.81;47.86;100989.22;839780;23;1273;-81
2023/06/12 00:23:43;;;;;;;8.80;6.90;;;;;;;17.79;47.96;100985.72;843101;23;1209;-79
2023/06/12 00:24:08;;;;;;;9.15;6.95;;;;;;;17.78;47.89;100985.72;843737;23;1295;-79
2023/06/12 00:24:29;;;;;;;8.02;6.40;;;;;;;17.82;48.01;100995.38;843687;23;1165;-80
2023/06/12 00:24:49;;;;;;;8.80;6.25;;;;;;;17.70;48.01;100975.13;836026;23;1217;-79
2023/06/12 00:25:10;;;;;;;10.50;6.60;;;;;;;17.68;48.13;100980.41;837148;23;1903;-78
2023/06/12 00:25:31;;;;;;;11.50;6.90;;;;;;;17.73;48.11;100988.34;835729;23;1114;-79
2023/06/12 00:25:52;;;;;;;10.48;7.10;;;;;;;17.70;48.44;100980.41;836043;23;1315;-80
2023/06/12 00:26:12;;;;;;;9.30;7.30;;;;;;;17.73;48.59;100985.69;836936;23;1120;-80
2023/06/12 00:26:38;;;;;;;9.60;7.45;;;;;;;17.73;48.42;100988.34;842446;23;1241;-79
2023/06/12 00:26:59;;;;;;;10.20;7.30;;;;;;;17.71;48.46;100984.81;840483;23;1108;-79
2023/06/12 00:27:19;;;;;;;11.00;7.20;;;;;;;17.77;48.60;100992.72;838160;23;1059;-79
2023/06/12 00:27:40;;;;;;;11.38;6.75;;;;;;;17.72;48.63;100990.97;839363;23;1328;-80
2023/06/12 00:28:01;;;;;;;10.67;6.60;;;;;;;17.73;48.33;100984.81;839687;23;1320;-79
2023/06/12 00:28:21;;;;;;;9.95;6.40;;;;;;;17.68;48.31;100979.53;843818;23;1020;-79
2023/06/12 00:28:42;;;;;;;9.10;6.65;;;;;;;17.70;48.44;100985.69;843493;23;1360;-79
2023/06/12 00:29:03;;;;;;;10.13;6.80;;;;;;;17.63;48.48;100973.34;844808;23;985;-79
2023/06/12 00:29:23;;;;;;;10.10;6.97;;;;;;;17.71;48.54;100991.84;841040;23;921;-79
2023/06/12 00:29:44;;;;;;;11.50;7.07;;;;;;;17.63;48.69;100983.91;838604;23;1311;-80
2023/06/12 00:30:05;;;;;;;9.70;7.10;;;;;;;17.60;48.71;100984.81;841945;23;1167;-79
2023/06/12 00:44:02;;;;;;;9.40;7.22;;;;;;;17.31;50.30;100996.16;855565;23;1238;-79
2023/06/12 00:44:23;;;;;;;8.98;7.20;;;;;;;17.31;50.10;100996.16;847469;23;1219;-79
2023/06/12 00:44:43;;;;;;;8.68;7.03;;;;;;;17.25;50.07;100989.09;845218;23;724;-80
2023/06/12 00:45:05;;;;;;;8.60;6.90;;;;;;;17.23;50.00;100989.97;839327;23;1950;-79
2023/06/12 00:45:26;;;;;;;8.32;6.78;;;;;;;17.24;50.01;101000.53;844974;23;897;-79
2023/06/12 00:45:47;;;;;;;10.10;7.22;;;;;;;17.20;49.95;100987.28;839808;23;1307;-79
2023/06/12 00:46:08;;;;;;;10.40;7.10;;;;;;;17.22;50.44;100999.63;835541;23;1104;-79
2023/06/12 00:46:29;;;;;;;9.85;7.13;;;;;;;17.19;50.16;100993.41;835342;23;1385;-80
2023/06/12 00:46:50;;;;;;;8.18;6.80;;;;;;;17.21;50.42;100992.59;836602;23;862;-79
2023/06/12 00:47:12;;;;;;;9.70;6.90;;;;;;;17.16;50.31;100991.66;836495;23;1137;-79
2023/06/12 00:47:33;;;;;;;10.15;7.10;;;;;;;17.20;50.10;100998.69;839529;23;1341;-79
2023/06/12 00:47:57;;;;;;;11.75;7.22;;;;;;;17.17;50.31;101001.34;837438;23;835;-80
2023/06/12 00:48:18;;;;;;;9.80;7.28;;;;;;;17.07;50.22;100984.59;836794;23;1109;-79
2023/06/12 00:48:40;;;;;;;8.25;7.03;;;;;;;17.08;50.41;100990.75;837219;23;842;-80
2023/06/12 00:49:01;;;;;;;8.13;6.90;;;;;;;17.11;50.22;100996.03;835531;23;1148;-79
2023/06/12 00:49:23;;;;;;;8.27;6.68;;;;;;;17.10;50.24;100995.13;843648;23;951;-79
2023/06/12 00:49:43;;;;;;;7.90;6.70;;;;;;;17.03;50.41;100993.34;839072;23;1327;-79
2023/06/12 00:50:08;;;;;;;7.68;6.70;;;;;;;17.06;50.20;100992.47;835584;23;1177;-79
2023/06/12 00:50:29;;;;;;;8.60;7.10;;;;;;;17.04;50.33;100996.88;844992;23;1128;-79
2023/06/12 00:50:52;;;;;;;9.57;7.20;;;;;;;16.98;50.60;100985.41;838416;23;1218;-79
2023/06/12 00:51:17;;;;;;;9.35;7.07;;;;;;;16.98;50.61;100988.06;838084;23;1299;-79
2023/06/12 00:51:39;;;;;;;10.98;7.28;;;;;;;16.95;50.53;100985.41;835603;23;1365;-80
2023/06/12 00:51:59;;;;;;;10.85;7.32;;;;;;;17.01;50.74;100995.09;836755;23;950;-79
2023/06/12 00:52:26;;;;;;;10.07;7.40;;;;;;;17.02;50.79;101001.28;836839;23;1059;-79
2023/06/12 00:52:49;;;;;;;9.95;7.70;;;;;;;16.91;50.77;100986.25;835546;23;1992;-77
2023/06/12 00:53:09;;;;;;;9.40;7.50;;;;;;;16.91;50.80;100983.63;842524;23;1313;-78
2023/06/12 00:53:32;;;;;;;10.40;7.55;;;;;;;16.86;50.84;100978.31;839503;23;1326;-80
2023/06/12 00:53:54;;;;;;;10.32;7.40;;;;;;;16.90;50.80;100987.13;839625;23;1319;-79
2023/06/12 00:54:15;;;;;;;9.65;7.30;;;;;;;16.91;50.90;100988.03;844525;23;1024;-79
2023/06/12 00:54:36;;;;;;;10.32;7.20;;;;;;;16.85;50.95;100984.47;845195;23;880;-79
2023/06/12 00:54:57;;;;;;;11.45;7.40;;;;;;;16.88;50.88;100994.16;845011;23;974;-78
2023/06/12 00:55:18;;;;;;;12.60;7.70;;;;;;;16.88;50.95;100994.16;848924;23;1172;-79
2023/06/12 00:55:38;;;;;;;11.32;7.72;;;;;;;16.85;51.20;100994.16;837203;23;855;-79
2023/06/12 00:55:59;;;;;;;12.53;8.07;;;;;;;16.79;51.11;100983.56;840894;23;1104;-79
2023/06/12 00:56:21;;;;;;;11.23;7.70;;;;;;;16.79;51.20;100980.94;841013;23;1140;-80
2023/06/12 00:56:42;;;;;;;10.60;7.05;;;;;;;16.83;51.22;100991.50;841312;23;700;-79
2023/06/12 00:57:04;;;;;;;9.38;7.28;;;;;;;16.78;51.04;100989.72;846978;23;1282;-79
2023/06/12 00:57:25;;;;;;;9.18;7.40;;;;;;;16.77;51.23;100993.25;844772;23;965;-79
2023/06/12 00:57:47;;;;;;;8.60;7.10;;;;;;;16.78;51.17;100998.50;849114;23;720;-78
2023/06/12 00:58:08;;;;;;;9.25;7.20;;;;;;;16.76;51.28;100997.63;849036;23;1063;-79
2023/06/12 00:58:30;;;;;;;9.07;7.07;;;;;;;16.79;51.47;101002.03;844938;23;1054;-79
2023/06/12 00:58:52;;;;;;;9.07;6.93;;;;;;;16.69;51.39;100983.53;838916;23;1296;-80
2023/06/12 00:59:13;;;;;;;9.32;6.88;;;;;;;16.74;51.20;100994.09;840815;23;1079;-79
2023/06/12 00:59:35;;;;;;;9.13;6.93;;;;;;;16.68;51.38;100979.13;842771;23;1224;-79
2023/06/12 00:59:56;;;;;;;9.30;7.30;;;;;;;16.72;51.45;100996.72;839115;23;1131;-79
2023/06/12 01:00:19;;;;;;;8.50;7.30;;;;;;;16.68;51.71;100981.78;839196;23;1253;-79
2023/06/12 01:00:40;;;;;;;9.60;7.70;;;;;;;16.69;51.64;100994.06;839291;23;1283;-79
2023/06/12 01:01:01;;;;;;;10.20;7.70;;;;;;;16.67;51.34;100992.28;840655;23;848;-78
2023/06/12 01:01:25;;;;;;;10.23;7.70;;;;;;;16.67;51.53;100995.78;842570;23;1143;-78
2023/06/12 01:01:45;;;;;;;10.57;7.65;;;;;;;16.61;51.51;100979.97;839560;23;1098;-78
2023/06/12 01:02:09;;;;;;;12.03;7.60;;;;;;;16.66;51.42;101004.56;842813;23;1263;-78
2023/06/12 01:02:30;;;;;;;13.35;7.75;;;;;;;16.64;51.55;100997.53;840961;23;905;-79
2023/06/12 01:02:56;;;;;;;13.43;7.80;;;;;;;16.68;51.54;101001.94;840936;23;885;-79
2023/06/12 01:03:17;;;;;;;11.90;7.80;;;;;;;16.57;51.56;100989.59;840911;23;922;-79
2023/06/12 01:03:38;;;;;;;12.90;7.97;;;;;;;16.56;51.55;100986.94;839839;23;1347;-80
2023/06/12 01:04:00;;;;;;;11.82;8.05;;;;;;;16.55;51.38;100985.19;839528;23;1433;-79
2023/06/12 01:04:22;;;;;;;11.50;8.20;;;;;;;16.59;51.63;100994.84;839436;23;1418;-79
2023/06/12 01:04:43;;;;;;;10.25;7.97;;;;;;;16.56;51.80;100992.22;835288;23;1072;-79
2023/06/12 01:05:10;;;;;;;9.57;8.10;;;;;;;16.56;51.68;100989.59;839271;23;1947;-80
2023/06/12 01:05:42;;;;;;;9.25;7.57;;;;;;;16.61;51.74;101005.41;843599;23;927;-79
2023/06/12 01:06:09;;;;;;;10.05;7.15;;;;;;;16.53;51.67;100987.81;840939;23;1072;-79
2023/06/12 01:07:01;;;;;;;10.30;7.30;;;;;;;16.53;51.96;100984.31;839532;23;1322;-78
2023/06/12 01:07:34;;;;;;;10.95;7.95;;;;;;;16.61;51.87;100995.78;838195;23;1527;-80
2023/06/12 01:08:10;;;;;;;10.75;7.40;;;;;;;16.63;51.93;101004.56;839782;23;822;-81
2023/06/12 01:08:58;;;;;;;8.98;6.97;;;;;;;16.62;51.80;100992.25;845004;23;972;-79
2023/06/12 01:10:04;;;;;;;10.68;7.32;;;;;;;16.64;51.62;101000.16;847408;23;1020;-80
2023/06/12 01:10:39;;;;;;;8.48;7.40;;;;;;;16.62;51.65;100997.53;840596;23;1271;-80
2023/06/12 01:11:05;;;;;;;9.63;7.85;;;;;;;16.61;51.73;100992.25;836711;23;1152;-81
2023/06/12 01:11:27;;;;;;;10.03;7.90;;;;;;;16.59;51.58;100984.31;839105;23;995;-81
2023/06/12 01:11:51;;;;;;;10.60;8.25;;;;;;;16.57;51.69;100984.34;839716;23;1347;-80
2023/06/12 01:12:15;;;;;;;10.73;7.97;;;;;;;16.59;51.67;100981.69;840764;23;1105;-79
2023/06/12 01:12:36;;;;;;;10.43;7.72;;;;;;;16.56;51.63;100979.03;841109;23;778;-81
2023/06/12 01:12:59;;;;;;;10.10;7.68;;;;;;;16.57;51.79;100981.69;838012;23;1175;-80
2023/06/12 01:13:21;;;;;;;9.30;7.90;;;;;;;16.60;51.48;100994.00;835481;23;1446;-81
2023/06/12 01:13:42;;;;;;;9.60;7.95;;;;;;;16.61;51.65;100995.78;838958;23;1355;-80
2023/06/12 01:14:02;;;;;;;9.75;7.90;;;;;;;16.57;51.58;100994.88;841046;23;1119;-79
2023/06/12 01:14:23;;;;;;;9.73;7.90;;;;;;;16.54;51.57;100981.66;845172;23;890;-82
2023/06/12 01:14:47;;;;;;;9.60;7.63;;;;;;;16.58;51.69;100998.38;847835;23;1443;-80
2023/06/12 01:15:09;;;;;;;9.30;7.28;;;;;;;16.47;51.80;100981.63;847578;23;1463;-81
2023/06/12 01:15:29;;;;;;;9.20;7.20;;;;;;;16.53;51.79;100992.22;845076;23;1009;-79
2023/06/12 01:15:50;;;;;;;9.33;7.53;;;;;;;16.47;51.88;100981.63;841152;23;1336;-80
2023/06/12 01:16:14;;;;;;;9.38;7.80;;;;;;;16.50;52.08;100992.16;843632;23;1253;-80
2023/06/12 01:16:35;;;;;;;8.90;7.65;;;;;;;16.48;51.97;100988.66;845321;23;810;-79
2023/06/12 01:17:01;;;;;;;8.40;7.38;;;;;;;16.47;52.23;100987.75;839125;23;1183;-78
2023/06/12 01:17:23;;;;;;;9.05;7.30;;;;;;;16.46;52.22;100995.66;835441;23;1516;-78
2023/06/12 01:17:44;;;;;;;9.68;7.53;;;;;;;16.42;52.32;100987.72;835680;23;1634;-78
2023/06/12 01:18:06;;;;;;;10.40;7.60;;;;;;;16.44;52.42;100988.63;836839;23;1009;-79
2023/06/12 01:18:29;;;;;;;10.75;7.82;;;;;;;16.45;52.46;100994.78;836800;23;901;-79
2023/06/12 01:18:52;;;;;;;10.93;7.70;;;;;;;16.40;52.58;100985.94;841119;23;869;-79
2023/06/12 01:19:19;;;;;;;10.95;7.43;;;;;;;16.44;52.48;100988.63;839225;23;1406;-78
2023/06/12 01:19:45;;;;;;;9.20;7.30;;;;;;;16.45;52.73;101000.03;838803;23;1363;-79
2023/06/12 01:20:11;;;;;;;8.43;7.30;;;;;;;16.37;52.79;100978.94;840631;23;976;-79
2023/06/12 01:20:34;;;;;;;8.45;7.15;;;;;;;16.43;52.86;100992.13;841178;23;802;-79
2023/06/12 01:20:58;;;;;;;9.30;6.70;;;;;;;16.43;52.96;100994.75;841178;23;1234;-79
2023/06/12 01:21:22;;;;;;;9.70;6.60;;;;;;;16.39;53.08;100985.09;835439;23;1175;-80
2023/06/12 01:21:52;;;;;;;11.05;7.30;;;;;;;16.33;52.96;100978.91;837182;23;772;-79
2023/06/12 01:22:20;;;;;;;10.48;7.78;;;;;;;16.42;53.02;100993.00;840698;23;1096;-79
2023/06/12 01:22:46;;;;;;;9.88;7.32;;;;;;;16.36;53.14;100977.16;839276;23;1219;-79
2023/06/12 01:23:32;;;;;;;10.07;7.38;;;;;;;16.37;53.34;100989.47;838926;23;1422;-78
2023/06/12 01:24:11;;;;;;;12.40;7.45;;;;;;;16.38;53.49;100978.06;835794;23;1324;-79
2023/06/12 01:25:07;;;;;;;9.50;7.22;;;;;;;16.33;53.60;100985.03;836918;23;1463;-80
2023/06/12 01:25:40;;;;;;;10.80;7.57;;;;;;;16.36;53.48;100985.06;838167;23;1036;-80
2023/06/12 01:26:39;;;;;;;10.18;7.20;;;;;;;16.35;53.45;100987.69;839116;23;1058;-79
2023/06/12 01:27:32;;;;;;;9.48;7.47;;;;;;;16.32;53.53;100988.53;840161;23;1135;-80
2023/06/12 01:28:07;;;;;;;9.68;6.80;;;;;;;16.28;53.65;100987.63;846768;23;789;-79
2023/06/12 01:28:27;;;;;;;10.35;7.70;;;;;;;16.28;53.72;100979.72;848981;23;1137;-79
2023/06/12 01:29:19;;;;;;;9.98;7.85;;;;;;;16.28;53.76;100985.00;843823;23;1087;-80
2023/06/12 01:29:56;;;;;;;8.25;7.00;;;;;;;16.22;53.66;100982.28;843635;23;811;-80
2023/06/12 01:30:55;;;;;;;10.25;7.10;;;;;;;16.23;53.66;100988.44;839356;23;1355;-79
2023/06/12 01:31:28;;;;;;;11.65;7.28;;;;;;;16.20;53.85;100988.41;839267;23;1416;-80
2023/06/12 01:32:01;;;;;;;9.85;7.15;;;;;;;16.18;53.82;100991.91;839789;23;823;-78
2023/06/12 01:32:24;;;;;;;8.23;7.00;;;;;;;16.14;53.92;100978.69;835727;23;1240;-79
2023/06/12 01:32:50;;;;;;;8.30;6.90;;;;;;;16.10;54.04;100983.06;837354;23;800;-78
2023/06/12 01:33:17;;;;;;;10.40;6.80;;;;;;;16.04;54.02;100975.09;840838;23;931;-78
2023/06/12 01:33:41;;;;;;;11.23;7.00;;;;;;;16.11;54.07;100979.56;839449;23;1391;-78
2023/06/12 01:34:29;;;;;;;10.82;7.22;;;;;;;16.08;54.44;100976.00;839734;23;1447;-78
2023/06/12 01:34:57;;;;;;;13.23;8.15;;;;;;;16.17;54.29;100984.88;839908;23;873;-79
2023/06/12 01:35:27;;;;;;;9.90;7.38;;;;;;;16.13;54.37;100982.22;845123;23;1004;-78
2023/06/12 01:35:51;;;;;;;8.60;7.00;;;;;;;16.13;54.55;100985.75;839804;23;1196;-78
2023/06/12 01:36:19;;;;;;;7.97;6.80;;;;;;;16.18;54.39;100991.03;840945;23;1100;-78
2023/06/12 01:37:05;;;;;;;10.27;7.05;;;;;;;16.14;54.59;100987.50;841259;23;812;-79
2023/06/12 01:37:44;;;;;;;10.75;7.30;;;;;;;16.21;54.58;100985.78;837125;23;977;-79
2023/06/12 01:38:17;;;;;;;8.30;7.15;;;;;;;16.20;54.68;100994.56;839184;23;1144;-78
2023/06/12 01:38:43;;;;;;;8.35;7.40;;;;;;;16.20;54.71;100988.41;843855;23;2040;-79
2023/06/12 01:39:05;;;;;;;9.10;7.80;;;;;;;16.13;54.52;100971.69;840762;23;1052;-78
2023/06/12 01:39:28;;;;;;;11.55;7.90;;;;;;;16.21;54.58;100984.91;843612;23;1331;-78
2023/06/12 01:39:56;;;;;;;13.20;7.80;;;;;;;16.22;54.59;100986.69;843962;23;834;-79
2023/06/12 01:40:19;;;;;;;10.60;7.07;;;;;;;16.14;54.48;100969.06;839706;23;1110;-78
2023/06/12 01:40:45;;;;;;;8.52;6.80;;;;;;;16.20;54.25;100984.03;839926;23;1699;-78
2023/06/12 01:41:08;;;;;;;7.50;6.40;;;;;;;16.21;54.40;100984.91;840384;23;1234;-78
2023/06/12 01:41:30;;;;;;;8.40;6.90;;;;;;;16.15;54.35;100975.19;841062;23;1001;-78
2023/06/12 01:41:53;;;;;;;9.73;7.60;;;;;;;16.14;54.25;100973.44;839765;23;1303;-78
2023/06/12 01:42:14;;;;;;;9.93;7.80;;;;;;;16.16;54.34;100976.97;840738;23;1194;-79
2023/06/12 01:42:35;;;;;;;9.93;7.50;;;;;;;16.20;54.25;100981.41;847971;23;1288;-78
2023/06/12 01:42:57;;;;;;;8.98;7.13;;;;;;;16.10;54.23;100977.78;845317;23;1091;-78
2023/06/12 01:43:17;;;;;;;8.93;7.10;;;;;;;16.09;54.35;100976.03;839575;23;1005;-78
2023/06/12 01:43:38;;;;;;;9.15;7.30;;;;;;;16.08;54.43;100973.38;841220;23;855;-78
2023/06/12 01:44:09;;;;;;;10.10;7.32;;;;;;;16.06;54.50;100981.28;843254;23;1208;-78
2023/06/12 01:44:32;;;;;;;10.57;7.50;;;;;;;16.01;54.53;100973.34;843572;23;1149;-78
2023/06/12 01:44:54;;;;;;;9.52;7.50;;;;;;;16.07;54.29;100980.41;843972;23;1261;-78
2023/06/12 01:45:15;;;;;;;9.45;7.40;;;;;;;16.00;54.55;100978.59;839179;23;1942;-78
2023/06/12 01:45:37;;;;;;;10.15;7.45;;;;;;;15.99;54.69;100974.19;836078;23;1294;-79
2023/06/12 01:45:59;;;;;;;11.55;7.70;;;;;;;16.04;54.48;100985.63;839636;23;1890;-78
2023/06/12 01:46:20;;;;;;;11.43;7.55;;;;;;;15.99;54.49;100974.19;838867;23;1507;-78
2023/06/12 01:46:41;;;;;;;10.15;7.70;;;;;;;15.96;54.52;100975.06;838609;23;1354;-78
2023/06/12 01:47:03;;;;;;;10.55;7.75;;;;;;;16.00;54.69;100975.97;834979;23;1234;-78
2023/06/12 01:47:23;;;;;;;11.55;8.00;;;;;;;15.97;54.72;100975.94;841093;23;967;-78
2023/06/12 01:47:46;;;;;;;10.95;7.78;;;;;;;15.95;54.78;100975.03;834972;23;1507;-78
2023/06/12 01:48:07;;;;;;;9.77;7.60;;;;;;;16.00;54.66;100978.59;835548;23;1054;-77
2023/06/12 01:48:29;;;;;;;9.70;7.70;;;;;;;15.99;55.03;100979.47;846956;23;1204;-78
2023/06/12 01:48:50;;;;;;;10.30;8.18;;;;;;;15.93;54.92;100975.03;853632;23;821;-77
2023/06/12 01:49:11;;;;;;;11.07;8.38;;;;;;;16.01;55.05;100980.34;843075;23;1119;-80
2023/06/12 01:49:32;;;;;;;9.95;7.40;;;;;;;15.94;54.73;100963.63;849394;23;1119;-81
2023/06/12 01:49:55;;;;;;;9.75;7.00;;;;;;;15.99;54.62;100966.31;845442;23;751;-81
2023/06/12 01:50:16;;;;;;;10.20;7.20;;;;;;;16.03;54.51;100982.13;843525;23;1305;-78
2023/06/12 01:50:37;;;;;;;12.32;7.50;;;;;;;16.04;54.86;100977.72;843543;23;1272;-78
2023/06/12 01:50:58;;;;;;;12.25;7.75;;;;;;;16.01;54.78;100972.47;837122;23;1101;-78
2023/06/12 01:51:19;;;;;;;10.95;7.50;;;;;;;16.04;54.95;100980.38;839610;23;1178;-78
2023/06/12 01:51:40;;;;;;;10.35;7.70;;;;;;;16.05;54.74;100984.78;841247;23;819;-78
2023/06/12 01:52:03;;;;;;;9.93;7.57;;;;;;;16.02;54.60;100976.84;839609;23;1350;-78
2023/06/12 01:52:24;;;;;;;9.95;7.60;;;;;;;16.02;54.69;100968.94;844957;23;1442;-79
2023/06/12 01:52:45;;;;;;;8.85;7.05;;;;;;;16.03;54.54;100975.97;845213;23;1210;-79
2023/06/12 01:53:08;;;;;;;8.88;7.20;;;;;;;16.04;54.50;100975.09;841002;23;1014;-78
2023/06/12 01:53:29;;;;;;;8.50;7.03;;;;;;;15.98;54.46;100964.53;837014;23;876;-78
2023/06/12 01:53:52;;;;;;;8.15;7.15;;;;;;;15.97;54.38;100968.91;839864;23;1498;-78
2023/06/12 01:54:13;;;;;;;9.00;7.25;;;;;;;15.99;54.47;100969.81;842456;23;1125;-78
2023/06/12 01:54:35;;;;;;;9.23;7.60;;;;;;;15.98;54.30;100972.44;845250;23;767;-79
2023/06/12 01:54:58;;;;;;;9.60;7.78;;;;;;;16.02;54.26;100977.75;841290;23;924;-78
2023/06/12 01:55:21;;;;;;;8.80;7.25;;;;;;;16.00;54.38;100982.09;842232;23;1420;-78
2023/06/12 01:55:44;;;;;;;9.52;7.30;;;;;;;15.99;54.42;100980.31;845347;23;811;-77
2023/06/12 01:56:06;;;;;;;9.40;7.40;;;;;;;15.93;54.27;100969.78;843452;23;1064;-77
2023/06/12 01:56:27;;;;;;;9.48;7.38;;;;;;;15.98;54.67;100977.72;845004;23;1310;-77
2023/06/12 01:56:49;;;;;;;8.48;7.22;;;;;;;15.96;54.65;100976.78;844653;23;814;-79
2023/06/12 01:57:11;;;;;;;9.30;7.25;;;;;;;15.92;54.57;100967.13;835666;23;1334;-79
2023/06/12 01:57:33;;;;;;;10.40;7.43;;;;;;;15.99;54.59;100980.31;839791;23;1336;-79
2023/06/12 01:57:55;;;;;;;10.68;7.82;;;;;;;15.95;54.44;100975.03;840063;23;1353;-79
2023/06/12 01:58:29;;;;;;;9.43;7.90;;;;;;;15.97;54.67;100982.06;841071;23;1020;-77
2023/06/12 01:59:04;;;;;;;10.32;7.60;;;;;;;15.96;54.75;100979.41;839472;23;1013;-77
2023/06/12 01:59:29;;;;;;;9.40;7.38;;;;;;;15.93;54.55;100977.66;845177;23;1015;-79
2023/06/12 01:59:54;;;;;;;8.25;7.28;;;;;;;15.94;54.05;100976.78;847981;23;1268;-80
2023/06/12 02:00:17;;;;;;;8.85;7.20;;;;;;;15.94;54.34;100976.78;847669;23;1069;-79
2023/06/12 02:00:40;;;;;;;8.75;7.07;;;;;;;15.88;54.28;100977.59;846641;23;1250;-79
2023/06/12 02:01:02;;;;;;;9.30;7.10;;;;;;;15.90;54.38;100983.78;848977;23;1027;-78
2023/06/12 02:01:26;;;;;;;9.88;7.35;;;;;;;15.87;54.41;100970.56;849363;23;1033;-77
2023/06/12 02:01:47;;;;;;;10.93;7.40;;;;;;;15.87;54.18;100967.06;849411;23;759;-80
2023/06/12 02:02:08;;;;;;;10.60;7.30;;;;;;;15.80;54.35;100962.63;844979;23;1101;-79
2023/06/12 02:02:29;;;;;;;9.73;7.10;;;;;;;15.89;54.41;100975.88;841079;23;887;-77
2023/06/12 02:02:55;;;;;;;9.90;7.15;;;;;;;15.80;54.23;100968.75;845251;23;829;-78
2023/06/12 02:03:22;;;;;;;12.07;7.55;;;;;;;15.86;54.15;100975.84;843507;23;1040;-77
2023/06/12 02:03:45;;;;;;;11.60;7.50;;;;;;;15.81;54.11;100965.28;835856;23;1336;-78
2023/06/12 02:04:06;;;;;;;11.88;7.47;;;;;;;15.81;54.14;100975.81;837034;23;1048;-79
2023/06/12 02:04:28;;;;;;;9.75;7.35;;;;;;;15.79;54.21;100966.13;835258;23;1185;-80
2023/06/12 02:04:51;;;;;;;9.40;7.15;;;;;;;15.78;54.62;100969.63;839819;23;1969;-79
2023/06/12 02:05:12;;;;;;;10.95;7.35;;;;;;;15.81;54.56;100974.91;844825;23;1897;-81
2023/06/12 02:05:33;;;;;;;10.65;7.15;;;;;;;15.75;54.68;100965.22;845299;23;769;-79
2023/06/12 02:05:54;;;;;;;10.25;7.03;;;;;;;15.76;54.83;100961.72;841473;23;857;-79
2023/06/12 02:06:16;;;;;;;8.52;7.25;;;;;;;15.77;54.79;100968.72;844892;23;1104;-77
2023/06/12 02:06:39;;;;;;;9.52;7.97;;;;;;;15.82;54.40;100980.19;845485;23;806;-78
2023/06/12 02:07:00;;;;;;;10.95;7.80;;;;;;;15.78;54.45;100967.00;852879;23;1127;-80
2023/06/12 02:07:23;;;;;;;10.90;7.70;;;;;;;15.73;54.62;100959.06;847857;23;1303;-78
2023/06/12 02:07:45;;;;;;;10.30;7.25;;;;;;;15.81;54.50;100975.81;839559;23;1263;-78